sensor_id;sensor_type;location;lat;lon;timestamp;temperature;humidity
18268;DHT22;9260;49.998;19.880;2022-08-21T00:06:11;17.10;99.90
18268;DHT22;9260;49.998;19.880;2022-08-21T00:16:15;17.10;99.90
18268;DHT22;9260;49.998;19.880;2022-08-21T00:26:20;17.00;99.90
18268;DHT22;9260;49.998;19.880;2022-08-21T00:36:24;16.90;99.90
18268;DHT22;9260;49.998;19.880;2022-08-21T00:46:29;16.90;99.90
18268;DHT22;9260;49.998;19.880;2022-08-21T00:56:33;16.80;99.90
18268;DHT22;9260;49.998;19.880;2022-08-21T01:06:38;16.80;99.90
18268;DHT22;9260;49.998;19.880;2022-08-21T01:16:45;16.60;99.90
18268;DHT22;9260;49.998;19.880;2022-08-21T01:26:52;16.40;99.90
18268;DHT22;9260;49.998;19.880;2022-08-21T01:36:55;16.60;99.90
18268;DHT22;9260;49.998;19.880;2022-08-21T01:47:03;16.70;99.90
18268;DHT22;9260;49.998;19.880;2022-08-21T01:57:09;16.80;99.90
18268;DHT22;9260;49.998;19.880;2022-08-21T02:07:15;16.90;99.90
18268;DHT22;9260;49.998;19.880;2022-08-21T02:17:19;17.10;99.90
18268;DHT22;9260;49.998;19.880;2022-08-21T02:27:25;17.20;99.90
18268;DHT22;9260;49.998;19.880;2022-08-21T02:37:29;17.20;99.90
18268;DHT22;9260;49.998;19.880;2022-08-21T02:47:35;17.30;99.90
18268;DHT22;9260;49.998;19.880;2022-08-21T02:57:39;17.30;99.90
18268;DHT22;9260;49.998;19.880;2022-08-21T03:07:47;17.40;99.90
18268;DHT22;9260;49.998;19.880;2022-08-21T03:17:52;17.60;99.90
18268;DHT22;9260;49.998;19.880;2022-08-21T03:27:58;17.60;99.90
18268;DHT22;9260;49.998;19.880;2022-08-21T03:38:03;17.60;99.90
18268;DHT22;9260;49.998;19.880;2022-08-21T03:48:08;17.70;99.90
18268;DHT22;9260;49.998;19.880;2022-08-21T03:58:15;17.80;99.90
18268;DHT22;9260;49.998;19.880;2022-08-21T04:08:22;17.80;99.90
18268;DHT22;9260;49.998;19.880;2022-08-21T04:18:26;18.00;99.90
18268;DHT22;9260;49.998;19.880;2022-08-21T04:28:31;18.10;99.90
18268;DHT22;9260;49.998;19.880;2022-08-21T04:38:35;18.30;99.90
18268;DHT22;9260;49.998;19.880;2022-08-21T04:48:46;18.40;99.90
18268;DHT22;9260;49.998;19.880;2022-08-21T04:58:53;18.50;99.90
18268;DHT22;9260;49.998;19.880;2022-08-21T05:09:01;18.70;99.90
18268;DHT22;9260;49.998;19.880;2022-08-21T05:19:05;19.00;99.90
18268;DHT22;9260;49.998;19.880;2022-08-21T05:29:11;19.20;99.90
18268;DHT22;9260;49.998;19.880;2022-08-21T05:39:15;19.50;99.90
18268;DHT22;9260;49.998;19.880;2022-08-21T05:49:21;19.80;99.90
18268;DHT22;9260;49.998;19.880;2022-08-21T05:59:25;20.10;99.90
18268;DHT22;9260;49.998;19.880;2022-08-21T06:09:31;20.70;99.90
18268;DHT22;9260;49.998;19.880;2022-08-21T06:19:36;21.40;99.90
18268;DHT22;9260;49.998;19.880;2022-08-21T06:29:41;21.80;99.90
18268;DHT22;9260;49.998;19.880;2022-08-21T06:39:47;21.60;99.90
18268;DHT22;9260;49.998;19.880;2022-08-21T06:49:52;21.10;99.90
18268;DHT22;9260;49.998;19.880;2022-08-21T06:59:56;21.10;99.90
18268;DHT22;9260;49.998;19.880;2022-08-21T07:10:02;21.20;99.90
18268;DHT22;9260;49.998;19.880;2022-08-21T07:20:07;21.10;99.90
18268;DHT22;9260;49.998;19.880;2022-08-21T07:30:13;21.20;99.90
18268;DHT22;9260;49.998;19.880;2022-08-21T07:40:17;21.50;99.90
18268;DHT22;9260;49.998;19.880;2022-08-21T07:50:23;21.50;99.90
18268;DHT22;9260;49.998;19.880;2022-08-21T08:00:28;21.80;99.90
18268;DHT22;9260;49.998;19.880;2022-08-21T08:10:34;21.90;99.90
18268;DHT22;9260;49.998;19.880;2022-08-21T08:20:38;22.00;99.90
18268;DHT22;9260;49.998;19.880;2022-08-21T08:30:45;22.40;99.90
18268;DHT22;9260;49.998;19.880;2022-08-21T08:40:54;22.10;99.90
18268;DHT22;9260;49.998;19.880;2022-08-21T08:51:06;22.40;99.90
18268;DHT22;9260;49.998;19.880;2022-08-21T09:01:17;22.90;99.90
18268;DHT22;9260;49.998;19.880;2022-08-21T09:11:29;22.80;99.90
18268;DHT22;9260;49.998;19.880;2022-08-21T09:21:42;23.00;99.90
18268;DHT22;9260;49.998;19.880;2022-08-21T09:31:52;24.10;99.90
18268;DHT22;9260;49.998;19.880;2022-08-21T09:41:58;24.10;99.90
18268;DHT22;9260;49.998;19.880;2022-08-21T09:52:13;24.70;99.90
18268;DHT22;9260;49.998;19.880;2022-08-21T10:02:25;27.30;99.90
18268;DHT22;9260;49.998;19.880;2022-08-21T10:12:42;28.40;99.90
18268;DHT22;9260;49.998;19.880;2022-08-21T10:23:00;27.40;99.90
18268;DHT22;9260;49.998;19.880;2022-08-21T10:33:20;26.00;99.90
18268;DHT22;9260;49.998;19.880;2022-08-21T10:43:37;24.50;99.90
18268;DHT22;9260;49.998;19.880;2022-08-21T10:53:55;22.60;99.90
18268;DHT22;9260;49.998;19.880;2022-08-21T11:04:11;21.70;99.90
18268;DHT22;9260;49.998;19.880;2022-08-21T11:14:25;20.90;99.90
18268;DHT22;9260;49.998;19.880;2022-08-21T11:24:40;20.50;99.90
18268;DHT22;9260;49.998;19.880;2022-08-21T11:34:56;20.80;99.90
18268;DHT22;9260;49.998;19.880;2022-08-21T11:45:14;22.10;99.90
18268;DHT22;9260;49.998;19.880;2022-08-21T11:55:34;23.70;99.90
18268;DHT22;9260;49.998;19.880;2022-08-21T12:05:52;26.40;99.90
18268;DHT22;9260;49.998;19.880;2022-08-21T12:16:07;23.80;99.90
18268;DHT22;9260;49.998;19.880;2022-08-21T12:26:25;23.50;99.90
18268;DHT22;9260;49.998;19.880;2022-08-21T12:36:41;26.60;99.90
18268;DHT22;9260;49.998;19.880;2022-08-21T12:46:50;25.60;99.90
18268;DHT22;9260;49.998;19.880;2022-08-21T12:57:07;24.00;99.90
18268;DHT22;9260;49.998;19.880;2022-08-21T13:07:13;24.40;99.90
18268;DHT22;9260;49.998;19.880;2022-08-21T13:17:22;26.90;99.90
18268;DHT22;9260;49.998;19.880;2022-08-21T13:27:29;28.10;99.90
18268;DHT22;9260;49.998;19.880;2022-08-21T13:37:35;26.70;99.90
18268;DHT22;9260;49.998;19.880;2022-08-21T13:47:40;25.00;99.90
18268;DHT22;9260;49.998;19.880;2022-08-21T13:57:45;24.20;99.90
18268;DHT22;9260;49.998;19.880;2022-08-21T14:07:50;23.10;99.90
18268;DHT22;9260;49.998;19.880;2022-08-21T14:18:13;22.20;99.90
18268;DHT22;9260;49.998;19.880;2022-08-21T14:28:23;22.00;99.90
18268;DHT22;9260;49.998;19.880;2022-08-21T14:38:30;21.40;99.90
18268;DHT22;9260;49.998;19.880;2022-08-21T14:48:35;21.00;99.90
18268;DHT22;9260;49.998;19.880;2022-08-21T14:58:43;20.80;99.90
18268;DHT22;9260;49.998;19.880;2022-08-21T15:08:52;20.50;99.90
18268;DHT22;9260;49.998;19.880;2022-08-21T15:18:59;19.90;99.90
18268;DHT22;9260;49.998;19.880;2022-08-21T15:29:05;19.40;99.90
18268;DHT22;9260;49.998;19.880;2022-08-21T15:39:11;18.70;99.90
18268;DHT22;9260;49.998;19.880;2022-08-21T15:49:15;18.00;99.90
18268;DHT22;9260;49.998;19.880;2022-08-21T15:59:21;17.50;99.90
18268;DHT22;9260;49.998;19.880;2022-08-21T16:09:25;17.20;99.90
18268;DHT22;9260;49.998;19.880;2022-08-21T16:19:31;17.00;99.90
18268;DHT22;9260;49.998;19.880;2022-08-21T16:29:36;16.70;99.90
18268;DHT22;9260;49.998;19.880;2022-08-21T16:39:42;16.40;99.90
18268;DHT22;9260;49.998;19.880;2022-08-21T16:49:47;16.30;99.90
18268;DHT22;9260;49.998;19.880;2022-08-21T16:59:53;16.10;99.90
18268;DHT22;9260;49.998;19.880;2022-08-21T17:09:57;16.10;99.90
18268;DHT22;9260;49.998;19.880;2022-08-21T17:20:03;16.00;99.90
18268;DHT22;9260;49.998;19.880;2022-08-21T17:30:10;15.80;99.90
18268;DHT22;9260;49.998;19.880;2022-08-21T17:40:17;15.50;99.90
18268;DHT22;9260;49.998;19.880;2022-08-21T17:50:21;15.40;99.90
18268;DHT22;9260;49.998;19.880;2022-08-21T18:00:27;15.30;99.90
18268;DHT22;9260;49.998;19.880;2022-08-21T18:10:31;15.20;99.90
18268;DHT22;9260;49.998;19.880;2022-08-21T18:20:37;15.20;99.90
18268;DHT22;9260;49.998;19.880;2022-08-21T18:30:42;15.10;99.90
18268;DHT22;9260;49.998;19.880;2022-08-21T18:40:50;15.00;99.90
18268;DHT22;9260;49.998;19.880;2022-08-21T18:50:57;14.90;99.90
18268;DHT22;9260;49.998;19.880;2022-08-21T19:01:02;15.00;99.90
18268;DHT22;9260;49.998;19.880;2022-08-21T19:11:08;14.90;99.90
18268;DHT22;9260;49.998;19.880;2022-08-21T19:21:13;15.00;99.90
18268;DHT22;9260;49.998;19.880;2022-08-21T19:31:19;14.90;99.90
18268;DHT22;9260;49.998;19.880;2022-08-21T19:41:29;14.90;99.90
18268;DHT22;9260;49.998;19.880;2022-08-21T19:51:35;14.90;99.90
18268;DHT22;9260;49.998;19.880;2022-08-21T20:01:40;14.90;99.90
18268;DHT22;9260;49.998;19.880;2022-08-21T20:11:46;14.80;99.90
18268;DHT22;9260;49.998;19.880;2022-08-21T20:21:52;14.80;99.90
18268;DHT22;9260;49.998;19.880;2022-08-21T20:31:59;14.80;99.90
18268;DHT22;9260;49.998;19.880;2022-08-21T20:42:08;14.80;99.90
18268;DHT22;9260;49.998;19.880;2022-08-21T20:52:13;14.70;99.90
18268;DHT22;9260;49.998;19.880;2022-08-21T21:02:34;14.70;99.90
18268;DHT22;9260;49.998;19.880;2022-08-21T21:12:45;14.70;99.90
18268;DHT22;9260;49.998;19.880;2022-08-21T21:23:04;14.80;99.90
18268;DHT22;9260;49.998;19.880;2022-08-21T21:33:14;14.70;99.90
18268;DHT22;9260;49.998;19.880;2022-08-21T21:43:30;14.70;99.90
18268;DHT22;9260;49.998;19.880;2022-08-21T21:53:46;14.70;99.90
18268;DHT22;9260;49.998;19.880;2022-08-21T22:04:02;14.70;99.90
18268;DHT22;9260;49.998;19.880;2022-08-21T22:14:13;14.70;99.90
18268;DHT22;9260;49.998;19.880;2022-08-21T22:24:27;14.80;99.90
18268;DHT22;9260;49.998;19.880;2022-08-21T22:34:36;14.80;99.90
18268;DHT22;9260;49.998;19.880;2022-08-21T22:44:49;14.70;99.90
18268;DHT22;9260;49.998;19.880;2022-08-21T22:54:59;14.70;99.90
18268;DHT22;9260;49.998;19.880;2022-08-21T23:05:16;14.70;99.90
18268;DHT22;9260;49.998;19.880;2022-08-21T23:15:26;14.80;99.90
18268;DHT22;9260;49.998;19.880;2022-08-21T23:36:43;14.80;99.90
18268;DHT22;9260;49.998;19.880;2022-08-21T23:47:21;14.90;99.90
18268;DHT22;9260;49.998;19.880;2022-08-21T23:58:19;14.90;99.90
